Tk Rotterdam — A8RG8 — position and weather

sailwx.info

Track history (hours):
 
Tides and Currents Weather Stations Pressure Air Temp Water Temp Dewpoint Dewpoint Depression Visibility Wind Speed Wind Dir Waves Ship Positions

Tk Rotterdam

Last reported at 2017-Nov-08 20:40 UTC. Time now 2017-Nov-19 18:06 UTC.
Position N 36°38' E 014°36'.
Warning: this ship's position is 10 days out of date.

Length 130 m; draft 5.2 m.

Type: Cargo ship. MMSI: 636014098.

Date/timePositionNaut miles runAvg speedWind from/ knotsBaromVisibWave heightAir tempDewpointWater temp
2017-Nov-08 20:40N 36°38' E 014°36'210.2
2017-Nov-08 20:30N 36°39' E 014°34'510.2
2017-Nov-08 20:00N 36°40' E 014°28'510.5
2017-Nov-08 19:30N 36°41' E 014°22'510.2
2017-Nov-08 19:00N 36°42' E 014°16'510.1
2017-Nov-08 18:30N 36°43' E 014°09'510.4
2017-Nov-08 17:59N 36°45' E 014°03'510.7
2017-Nov-08 17:30N 36°47' E 013°57'510.4
2017-Nov-08 17:00N 36°48' E 013°51'510.4
2017-Nov-08 16:30N 36°49' E 013°44'  
2017-Nov-04 23:24N 35°59' W 005°15'512.6
2017-Nov-04 23:00N 35°58' W 005°21'  
Track history (hours):
 
Tides and Currents Weather Stations Pressure Air Temp Water Temp Dewpoint Dewpoint Depression Visibility Wind Speed Wind Dir Waves Ship Positions

Tk Rotterdam

Last reported at 2017-Nov-08 20:40 UTC. Time now 2017-Nov-19 18:06 UTC.
Position N 36°38' E 014°36'.
Warning: this ship's position is 10 days out of date.

Length 130 m; draft 5.2 m.

Type: Cargo ship. MMSI: 636014098.

Date/timePositionNaut miles runAvg speedWind from/ knotsBaromVisibWave heightAir tempDewpointWater temp
2017-Nov-08 20:40N 36°38' E 014°36'210.2
2017-Nov-08 20:30N 36°39' E 014°34'510.2
2017-Nov-08 20:00N 36°40' E 014°28'510.5
2017-Nov-08 19:30N 36°41' E 014°22'510.2
2017-Nov-08 19:00N 36°42' E 014°16'510.1
2017-Nov-08 18:30N 36°43' E 014°09'510.4
2017-Nov-08 17:59N 36°45' E 014°03'510.7
2017-Nov-08 17:30N 36°47' E 013°57'510.4
2017-Nov-08 17:00N 36°48' E 013°51'510.4
2017-Nov-08 16:30N 36°49' E 013°44'  
2017-Nov-04 23:24N 35°59' W 005°15'512.6
2017-Nov-04 23:00N 35°58' W 005°21'  

Dump ship's entire track history